Time;durP1;ratioP1;P1;durP2;ratioP2;P2;SDS_P1;SDS_P2;PMS_P1;PMS_P2;Temp;Humidity;BMP_temperature;BMP_pressure;BME280_temperature;BME280_humidity;BME280_pressure;Samples;Min_cycle;Max_cycle;Signal;HPM_P1;HPM_P2
2021/08/04 00:00:10;;;;;;;0.60;0.10;;;;;;;12.62;49.24;101436.50;5007900;28;20034;-68
2021/08/04 00:02:38;;;;;;;0.73;0.30;;;;;;;12.69;49.33;101443.25;5007486;28;20211;-70
2021/08/04 00:05:04;;;;;;;0.82;0.20;;;;;;;12.67;49.54;101442.44;5010700;28;20137;-72
2021/08/04 00:07:30;;;;;;;1.10;0.20;;;;;;;12.65;49.25;101441.63;5008616;28;20042;-70
2021/08/04 00:09:56;;;;;;;0.60;0.10;;;;;;;12.61;49.35;101442.66;5009945;28;20076;-70
2021/08/04 00:12:21;;;;;;;0.50;0.30;;;;;;;12.61;49.51;101442.66;4998483;28;20065;-69
2021/08/04 00:14:47;;;;;;;0.40;0.10;;;;;;;12.65;49.43;101440.78;4991714;28;20065;-70
2021/08/04 00:17:12;;;;;;;0.50;0.20;;;;;;;12.75;49.23;101443.94;4991307;28;20045;-70
2021/08/04 00:19:38;;;;;;;0.82;0.40;;;;;;;12.66;48.73;101445.09;5005858;28;20467;-71
2021/08/04 00:22:04;;;;;;;0.90;0.28;;;;;;;12.62;49.05;101438.28;5007107;28;20033;-72
2021/08/04 00:24:29;;;;;;;0.82;0.20;;;;;;;12.60;49.24;101445.34;5006683;28;20137;-69
2021/08/04 00:26:55;;;;;;;1.25;0.43;;;;;;;12.55;49.22;101437.66;5005714;28;20121;-69
2021/08/04 00:29:20;;;;;;;1.13;0.35;;;;;;;12.61;49.05;101442.66;5010482;28;20036;-70
2021/08/04 00:31:46;;;;;;;2.30;0.30;;;;;;;12.55;48.97;101436.81;5007731;28;20553;-69
2021/08/04 00:34:12;;;;;;;2.05;0.40;;;;;;;12.58;48.96;101442.81;5008373;28;20352;-70
2021/08/04 00:36:37;;;;;;;0.55;0.20;;;;;;;12.49;48.86;101443.13;5006205;28;20192;-70
2021/08/04 00:39:03;;;;;;;0.82;0.10;;;;;;;12.39;49.22;101442.66;5009062;28;20117;-72
2021/08/04 00:41:36;;;;;;;0.63;0.22;;;;;;;12.41;49.38;101450.47;5007033;28;20032;-68
2021/08/04 00:44:01;;;;;;;0.60;0.30;;;;;;;12.32;49.62;101446.44;5006951;28;20042;-69
2021/08/04 00:46:27;;;;;;;0.90;0.20;;;;;;;12.36;49.32;101449.78;5002989;28;20061;-71
2021/08/04 00:48:53;;;;;;;0.40;0.17;;;;;;;12.28;49.45;101445.69;5009804;28;20081;-71
2021/08/04 00:51:18;;;;;;;5.13;0.20;;;;;;;12.18;49.51;101443.47;5004991;28;20045;-71
2021/08/04 00:53:44;;;;;;;0.40;0.20;;;;;;;12.05;49.87;101445.72;4989608;28;20029;-71
2021/08/04 00:56:09;;;;;;;1.05;0.15;;;;;;;11.89;49.97;101442.81;5008640;28;20049;-70
2021/08/04 00:58:44;;;;;;;1.02;0.47;;;;;;;11.87;50.36;101449.84;5005048;28;20496;-70
2021/08/04 01:01:20;;;;;;;0.88;0.20;;;;;;;11.97;49.97;101447.75;4985350;28;20033;-70
2021/08/04 01:03:52;;;;;;;0.93;0.25;;;;;;;11.93;50.01;101446.16;5006464;28;20096;-71
2021/08/04 01:06:24;;;;;;;0.98;0.30;;;;;;;11.95;50.04;101442.56;4994855;28;20527;-71
2021/08/04 01:08:57;;;;;;;0.40;0.10;;;;;;;11.89;50.13;101442.81;4990270;28;20137;-69
2021/08/04 01:11:29;;;;;;;1.00;0.40;;;;;;;11.85;49.78;101438.56;5006835;28;20041;-69
2021/08/04 01:13:58;;;;;;;0.77;0.20;;;;;;;11.73;49.97;101445.09;4995704;28;20032;-70
2021/08/04 01:16:27;;;;;;;0.52;0.30;;;;;;;11.76;50.15;101444.13;5008772;28;20398;-70
2021/08/04 01:19:09;;;;;;;0.60;0.20;;;;;;;11.77;50.03;101444.06;5006099;28;20030;-69
2021/08/04 01:21:52;;;;;;;1.38;0.30;;;;;;;11.82;49.91;101442.16;5007353;28;20061;-70
2021/08/04 01:24:35;;;;;;;1.13;0.30;;;;;;;11.82;50.35;101441.28;4991560;28;20105;-70
2021/08/04 01:27:01;;;;;;;0.70;0.20;;;;;;;11.80;49.79;101446.59;5006071;28;20042;-70
2021/08/04 01:29:28;;;;;;;0.75;0.20;;;;;;;11.72;50.02;101445.13;5007095;28;20250;-70
2021/08/04 01:31:58;;;;;;;2.55;0.38;;;;;;;11.60;50.19;101446.44;4996322;28;20364;-69
2021/08/04 01:34:25;;;;;;;0.90;0.20;;;;;;;11.59;50.56;101440.31;5020769;28;20038;-68
2021/08/04 01:36:51;;;;;;;1.10;0.22;;;;;;;11.54;50.94;101438.78;4994845;28;20033;-70
2021/08/04 01:39:20;;;;;;;0.75;0.65;;;;;;;11.55;50.76;101441.31;5005662;28;20033;-70
2021/08/04 01:41:47;;;;;;;0.57;0.20;;;;;;;11.57;50.45;101438.66;5006220;28;20018;-72
2021/08/04 01:44:14;;;;;;;0.47;0.22;;;;;;;11.61;50.12;101433.28;5005160;28;20025;-70
2021/08/04 01:46:40;;;;;;;0.95;0.32;;;;;;;11.53;50.16;101434.44;5004339;28;20057;-70
2021/08/04 01:49:06;;;;;;;1.08;0.45;;;;;;;11.57;50.21;101441.28;4990103;28;20065;-69
2021/08/04 01:51:33;;;;;;;0.90;0.40;;;;;;;11.61;50.19;101437.66;5007455;28;20510;-70
2021/08/04 01:53:59;;;;;;;1.08;0.38;;;;;;;11.54;50.33;101430.94;5005204;28;20041;-69
2021/08/04 01:56:25;;;;;;;0.88;0.35;;;;;;;11.52;50.15;101432.75;4992992;28;20038;-69
2021/08/04 01:58:51;;;;;;;2.33;0.38;;;;;;;11.53;50.13;101437.06;5008907;28;20100;-70
2021/08/04 02:01:17;;;;;;;3.88;0.47;;;;;;;11.51;50.37;101437.13;4992060;28;20029;-70
2021/08/04 02:03:42;;;;;;;4.15;0.65;;;;;;;11.48;50.58;101433.75;5006630;28;20029;-70
2021/08/04 02:06:20;;;;;;;0.75;0.20;;;;;;;11.48;50.25;101441.59;5005950;28;20065;-71
2021/08/04 02:09:18;;;;;;;1.35;0.38;;;;;;;11.38;50.80;101434.09;5010275;28;20030;-71
2021/08/04 02:12:08;;;;;;;0.75;0.20;;;;;;;11.31;50.50;101435.22;4986363;28;20054;-69
2021/08/04 02:14:58;;;;;;;1.08;0.20;;;;;;;11.31;50.94;101434.31;4994921;28;20089;-69
2021/08/04 02:17:44;;;;;;;1.55;0.20;;;;;;;11.26;50.47;101431.88;5010060;28;20034;-69
2021/08/04 02:20:17;;;;;;;0.70;0.20;;;;;;;11.24;50.53;101431.94;5005756;28;20033;-70
2021/08/04 02:23:00;;;;;;;0.80;0.20;;;;;;;11.25;50.45;101438.88;5009480;28;20396;-70
2021/08/04 02:25:31;;;;;;;1.83;0.20;;;;;;;11.23;50.33;101430.22;5010967;28;20041;-70
2021/08/04 02:27:59;;;;;;;1.05;0.35;;;;;;;11.19;50.37;101433.84;5012335;28;20095;-69
2021/08/04 02:30:27;;;;;;;0.57;0.40;;;;;;;11.16;50.53;101435.72;5009394;28;20505;-69
2021/08/04 02:32:54;;;;;;;1.10;0.30;;;;;;;11.08;50.59;101427.25;5005173;28;20204;-69
2021/08/04 02:35:19;;;;;;;1.20;0.38;;;;;;;11.18;50.78;101428.69;5014385;28;20057;-69
2021/08/04 02:37:46;;;;;;;0.60;0.20;;;;;;;11.08;50.77;101429.88;5009741;28;20033;-69
2021/08/04 02:40:14;;;;;;;0.82;0.20;;;;;;;10.99;51.01;101433.66;4993132;28;20040;-70
2021/08/04 02:42:40;;;;;;;1.00;0.32;;;;;;;11.00;50.90;101438.84;4993970;28;20030;-70
2021/08/04 02:45:08;;;;;;;1.13;0.57;;;;;;;10.96;50.95;101437.22;5009972;28;20029;-69
2021/08/04 02:47:35;;;;;;;1.77;0.40;;;;;;;10.99;50.99;101433.66;5008015;28;20053;-69
2021/08/04 02:50:04;;;;;;;1.27;0.40;;;;;;;11.01;50.76;101437.06;4983654;28;20045;-70
2021/08/04 02:52:31;;;;;;;1.23;0.30;;;;;;;11.03;50.87;101438.72;5009744;28;20033;-68
2021/08/04 02:54:57;;;;;;;1.45;0.45;;;;;;;11.03;50.73;101449.19;4992311;28;20060;-69
2021/08/04 02:57:23;;;;;;;0.70;0.30;;;;;;;11.12;50.56;101445.41;5007620;28;20485;-68
2021/08/04 02:59:48;;;;;;;3.33;0.90;;;;;;;11.04;51.03;101445.69;5009586;28;20041;-69
2021/08/04 03:02:14;;;;;;;1.02;0.30;;;;;;;10.99;51.00;101450.19;5005371;28;20061;-70
2021/08/04 03:04:39;;;;;;;0.95;0.30;;;;;;;10.98;51.20;101450.25;4991920;28;20034;-70
2021/08/04 03:07:05;;;;;;;0.73;0.30;;;;;;;10.99;51.40;101450.19;5006151;28;20511;-69
2021/08/04 03:09:30;;;;;;;6.53;0.40;;;;;;;10.95;51.35;101448.59;5008114;28;20044;-68
2021/08/04 03:11:56;;;;;;;0.95;0.38;;;;;;;10.98;51.30;101452.88;5008795;28;20442;-70
2021/08/04 03:14:21;;;;;;;1.10;0.38;;;;;;;10.95;51.14;101451.22;5009090;28;20037;-70
2021/08/04 03:16:47;;;;;;;0.80;0.40;;;;;;;10.99;50.97;101444.13;5006869;28;20192;-70
2021/08/04 03:19:13;;;;;;;1.02;0.40;;;;;;;10.90;51.21;101441.81;5008185;28;20034;-70
2021/08/04 03:21:38;;;;;;;0.77;0.20;;;;;;;10.88;51.05;101444.47;4993363;28;20494;-70
2021/08/04 03:24:04;;;;;;;0.60;0.20;;;;;;;10.78;51.41;101451.72;5009382;28;20033;-70
2021/08/04 03:26:30;;;;;;;1.00;0.40;;;;;;;10.84;51.25;101446.34;5009349;28;20379;-70
2021/08/04 03:28:55;;;;;;;0.95;0.40;;;;;;;10.72;51.48;101446.66;5009468;28;20124;-68
2021/08/04 03:31:21;;;;;;;1.20;0.35;;;;;;;10.67;51.58;101447.75;5010016;28;20049;-70
2021/08/04 03:33:46;;;;;;;1.30;0.40;;;;;;;10.62;51.69;101448.72;5009139;28;20065;-70
2021/08/04 03:36:12;;;;;;;0.88;0.30;;;;;;;10.66;51.70;101448.63;5009225;28;20385;-69
2021/08/04 03:38:37;;;;;;;1.08;0.50;;;;;;;10.63;51.63;101447.81;5012398;28;20029;-69
2021/08/04 03:41:03;;;;;;;2.42;0.40;;;;;;;10.61;51.51;101448.78;5008224;28;20041;-70
2021/08/04 03:43:28;;;;;;;1.80;0.30;;;;;;;10.62;51.73;101453.97;5009243;28;20120;-69
2021/08/04 03:45:54;;;;;;;1.65;0.22;;;;;;;10.56;51.67;101455.91;5006024;28;20091;-69
2021/08/04 03:48:19;;;;;;;1.25;0.40;;;;;;;10.54;51.50;101455.94;5006834;28;20033;-70
2021/08/04 03:50:45;;;;;;;1.35;0.93;;;;;;;10.51;51.80;101450.81;5008631;28;20615;-69
2021/08/04 03:53:10;;;;;;;0.90;0.40;;;;;;;10.53;51.74;101461.25;5010505;28;20041;-70
2021/08/04 03:55:35;;;;;;;2.67;0.35;;;;;;;10.66;51.38;101453.84;5006834;28;20456;-70
2021/08/04 03:58:01;;;;;;;1.42;0.43;;;;;;;10.60;51.34;101447.91;5011033;28;20060;-70
2021/08/04 04:00:26;;;;;;;1.00;0.30;;;;;;;10.56;51.36;101442.84;5008005;28;20026;-70
2021/08/04 04:02:52;;;;;;;0.88;0.22;;;;;;;10.65;51.37;101453.00;5007677;28;20497;-69
2021/08/04 04:05:19;;;;;;;1.80;0.30;;;;;;;10.76;50.88;101450.91;5025968;28;20200;-71
2021/08/04 04:07:45;;;;;;;1.33;0.60;;;;;;;10.77;50.78;101449.13;5006199;28;20040;-69
2021/08/04 04:10:10;;;;;;;0.55;0.30;;;;;;;10.79;50.60;101449.94;5010467;28;20037;-70
2021/08/04 04:12:37;;;;;;;0.70;0.20;;;;;;;10.75;50.52;101450.94;5007877;28;20022;-70
2021/08/04 04:15:04;;;;;;;2.90;0.82;;;;;;;10.77;50.29;101454.38;5008988;28;20080;-69
2021/08/04 04:17:29;;;;;;;1.48;0.40;;;;;;;10.83;50.71;101456.84;4993149;28;20442;-70
2021/08/04 04:19:55;;;;;;;1.98;0.40;;;;;;;10.79;50.64;101461.28;5009915;28;20018;-70
2021/08/04 04:22:21;;;;;;;1.90;0.28;;;;;;;10.90;50.46;101463.56;5013649;28;20045;-69
2021/08/04 04:24:46;;;;;;;0.85;0.38;;;;;;;10.91;50.48;101461.84;5009696;28;20034;-69
2021/08/04 04:27:12;;;;;;;1.10;0.40;;;;;;;11.00;50.42;101462.38;4990722;28;20176;-70
2021/08/04 04:29:38;;;;;;;1.50;0.43;;;;;;;11.03;50.53;101467.50;5008356;28;20026;-69
2021/08/04 04:32:05;;;;;;;0.88;0.38;;;;;;;11.11;50.34;101469.03;5010033;28;20052;-69
2021/08/04 04:34:31;;;;;;;0.95;0.50;;;;;;;11.01;50.37;101468.47;4994726;28;20041;-67
2021/08/04 04:36:56;;;;;;;3.15;0.55;;;;;;;11.15;50.20;101468.00;5007847;28;20029;-69
2021/08/04 04:39:22;;;;;;;0.70;0.28;;;;;;;11.34;50.10;101476.13;4994137;28;20033;-70
2021/08/04 04:41:47;;;;;;;0.77;0.40;;;;;;;11.41;50.20;101475.84;5009595;28;20030;-69
2021/08/04 04:44:13;;;;;;;0.82;0.25;;;;;;;11.44;50.06;101473.13;5010205;28;20344;-69
2021/08/04 04:46:39;;;;;;;1.13;0.40;;;;;;;11.55;50.05;101464.03;5010086;28;20044;-69
2021/08/04 04:49:04;;;;;;;2.80;0.40;;;;;;;11.64;50.14;101468.97;5006418;28;20038;-70
2021/08/04 04:51:30;;;;;;;0.95;0.22;;;;;;;11.75;49.85;101473.81;5007393;28;20469;-71
2021/08/04 04:53:58;;;;;;;1.85;0.38;;;;;;;11.78;50.17;101472.00;5006829;28;20079;-69
2021/08/04 04:56:23;;;;;;;1.25;0.45;;;;;;;11.87;49.62;101474.28;5008085;28;20121;-70
2021/08/04 04:58:48;;;;;;;1.83;0.70;;;;;;;12.16;49.21;101474.97;5005333;28;20109;-71
2021/08/04 05:01:14;;;;;;;2.13;0.45;;;;;;;12.57;48.71;101476.94;5007936;28;20171;-70
2021/08/04 05:03:39;;;;;;;2.65;0.47;;;;;;;12.65;48.19;101470.50;5007975;28;20041;-72
2021/08/04 05:06:05;;;;;;;1.38;0.63;;;;;;;12.67;48.32;101476.53;5005365;28;20095;-73
2021/08/04 05:08:30;;;;;;;1.50;0.65;;;;;;;12.85;48.23;101476.75;5008325;28;20411;-71
2021/08/04 05:10:56;;;;;;;1.75;1.00;;;;;;;12.94;47.90;101476.38;5010883;28;20103;-70
2021/08/04 05:13:21;;;;;;;1.88;0.77;;;;;;;13.02;48.25;101478.69;5008654;28;20064;-71
2021/08/04 05:15:46;;;;;;;1.90;0.70;;;;;;;13.21;48.10;101484.03;5008227;28;20026;-69
2021/08/04 05:18:12;;;;;;;1.38;0.55;;;;;;;13.37;47.69;101485.09;5007893;28;20038;-71
2021/08/04 05:20:37;;;;;;;2.47;0.73;;;;;;;13.52;47.88;101489.69;5007371;28;20092;-69
2021/08/04 05:23:03;;;;;;;3.08;0.60;;;;;;;13.61;47.63;101482.41;5007331;28;20508;-69
2021/08/04 05:25:29;;;;;;;2.28;0.82;;;;;;;13.81;47.68;101482.38;5005953;28;20030;-70
2021/08/04 05:27:54;;;;;;;1.77;0.30;;;;;;;14.52;46.75;101482.69;5006198;28;20030;-69
2021/08/04 05:30:20;;;;;;;0.80;0.50;;;;;;;14.83;45.44;101482.97;5005302;28;20041;-70
2021/08/04 05:32:45;;;;;;;4.18;0.52;;;;;;;15.01;45.55;101484.69;5009623;28;20541;-69
2021/08/04 05:35:11;;;;;;;2.75;0.38;;;;;;;15.06;45.58;101490.63;5008812;28;20068;-70
2021/08/04 05:37:38;;;;;;;1.95;0.43;;;;;;;16.44;44.16;101489.66;5007195;28;20221;-69
2021/08/04 05:40:04;;;;;;;0.88;0.40;;;;;;;19.03;37.97;101491.72;4992128;28;20048;-70
2021/08/04 05:42:30;;;;;;;1.00;0.40;;;;;;;21.71;31.78;101489.38;5005764;28;20026;-70
2021/08/04 05:44:55;;;;;;;0.70;0.30;;;;;;;23.73;29.44;101493.25;5007422;28;20072;-69
2021/08/04 05:47:21;;;;;;;0.90;0.40;;;;;;;24.98;26.70;101491.09;5004096;28;20033;-69
2021/08/04 05:49:48;;;;;;;1.42;0.20;;;;;;;25.61;26.13;101489.75;5008136;28;20049;-70
2021/08/04 05:52:14;;;;;;;2.00;0.20;;;;;;;25.71;26.08;101490.56;5007558;28;20120;-70
2021/08/04 05:54:39;;;;;;;2.55;0.20;;;;;;;25.27;25.39;101490.22;5002814;28;20125;-71
2021/08/04 05:57:05;;;;;;;1.65;0.95;;;;;;;25.23;25.76;101484.28;5005962;28;20045;-70
2021/08/04 05:59:30;;;;;;;0.88;0.35;;;;;;;25.65;25.19;101496.50;5006392;28;20160;-70
2021/08/04 06:01:56;;;;;;;4.90;1.42;;;;;;;25.67;25.90;101497.19;5005712;28;20034;-69
2021/08/04 06:04:21;;;;;;;0.50;0.20;;;;;;;25.41;25.31;101487.06;5005235;28;20033;-71
2021/08/04 06:06:48;;;;;;;4.18;0.60;;;;;;;25.47;25.46;101491.03;5007046;28;20033;-72
2021/08/04 06:09:13;;;;;;;1.27;0.30;;;;;;;25.92;25.15;101497.50;5004626;28;20025;-70
2021/08/04 06:11:39;;;;;;;1.13;0.32;;;;;;;24.83;26.92;101489.78;5005564;28;20036;-70
2021/08/04 06:14:05;;;;;;;0.88;0.30;;;;;;;23.06;28.35;101493.66;5006394;28;20121;-71
2021/08/04 06:16:30;;;;;;;1.77;0.30;;;;;;;22.28;30.23;101495.56;5006878;28;20045;-70
2021/08/04 06:18:56;;;;;;;1.67;0.63;;;;;;;21.65;31.40;101503.16;5005470;28;20046;-70
2021/08/04 06:21:22;;;;;;;0.65;0.20;;;;;;;21.47;32.05;101508.94;5005840;28;20034;-71
2021/08/04 06:23:48;;;;;;;0.70;0.20;;;;;;;21.23;32.18;101508.94;5005515;28;20026;-70
2021/08/04 06:26:16;;;;;;;1.00;0.30;;;;;;;22.08;32.58;101502.44;5009171;28;20084;-71
2021/08/04 06:28:43;;;;;;;4.30;0.40;;;;;;;23.04;29.91;101501.78;5009487;28;20030;-69
2021/08/04 06:31:08;;;;;;;1.45;0.30;;;;;;;24.35;27.41;101498.59;5006028;28;20132;-71
2021/08/04 06:33:34;;;;;;;1.17;0.20;;;;;;;26.56;24.55;101498.41;5006402;28;20494;-70
2021/08/04 06:35:59;;;;;;;0.38;0.13;;;;;;;28.17;22.56;101492.75;5006447;28;20035;-70
2021/08/04 06:38:25;;;;;;;0.57;0.10;;;;;;;29.58;20.59;101498.88;5004769;28;20033;-71
2021/08/04 06:40:50;;;;;;;0.38;0.10;;;;;;;30.13;20.56;101499.03;5005725;28;20091;-71
2021/08/04 06:43:17;;;;;;;1.35;0.20;;;;;;;29.61;20.20;101488.81;5005444;28;20099;-69
2021/08/04 06:45:43;;;;;;;0.82;0.20;;;;;;;28.31;22.12;101494.78;5004783;28;20147;-70
2021/08/04 06:48:10;;;;;;;0.55;0.20;;;;;;;28.91;21.84;101492.88;5006074;28;20054;-70
2021/08/04 06:50:39;;;;;;;1.75;0.25;;;;;;;29.03;21.69;101491.53;5006191;28;20403;-71
2021/08/04 06:53:04;;;;;;;0.57;0.20;;;;;;;27.86;22.56;101487.06;5010504;28;20077;-70
2021/08/04 06:55:29;;;;;;;0.85;0.20;;;;;;;27.49;23.00;101497.06;5011217;28;20518;-71
2021/08/04 06:57:55;;;;;;;1.05;0.30;;;;;;;26.62;24.44;101492.50;5013010;28;20030;-71
2021/08/04 07:00:20;;;;;;;0.40;0.10;;;;;;;26.04;25.75;101507.03;5007137;28;20034;-72
2021/08/04 07:02:49;;;;;;;0.50;0.10;;;;;;;26.86;25.23;101497.25;5008775;28;20490;-71
2021/08/04 07:05:17;;;;;;;1.55;0.40;;;;;;;27.86;23.72;101504.00;5007057;28;20038;-72
2021/08/04 07:07:43;;;;;;;0.30;0.10;;;;;;;26.72;24.57;101498.63;5008519;28;20062;-69
2021/08/04 07:10:09;;;;;;;2.58;0.10;;;;;;;25.65;26.06;101504.53;5008511;28;20065;-69
2021/08/04 07:12:35;;;;;;;0.30;0.10;;;;;;;25.15;26.43;101502.91;5008283;28;20490;-71
2021/08/04 07:15:00;;;;;;;0.82;0.10;;;;;;;25.98;26.13;101499.63;5009936;28;20049;-71
2021/08/04 07:17:26;;;;;;;0.30;0.10;;;;;;;27.38;24.86;101504.53;5007442;28;20066;-72
2021/08/04 07:19:51;;;;;;;1.42;0.10;;;;;;;28.73;22.00;101501.13;5010191;28;21223;-70
2021/08/04 07:22:16;;;;;;;1.45;0.10;;;;;;;30.06;20.31;101508.81;5009088;28;20033;-72
2021/08/04 07:24:42;;;;;;;1.85;0.10;;;;;;;28.94;21.47;101504.13;5008934;28;20045;-71
2021/08/04 07:27:07;;;;;;;0.50;0.10;;;;;;;28.79;22.29;101500.47;5010827;28;20038;-71
2021/08/04 07:29:33;;;;;;;0.70;0.10;;;;;;;28.91;21.24;101509.03;5012851;28;20049;-71
2021/08/04 07:31:58;;;;;;;0.25;0.10;;;;;;;29.11;20.84;101509.53;5009167;28;20037;-71
2021/08/04 07:34:24;;;;;;;0.38;0.10;;;;;;;29.17;21.29;101516.94;5010790;28;20108;-72
2021/08/04 07:36:51;;;;;;;1.13;0.10;;;;;;;27.53;22.64;101514.53;5011613;28;20104;-71
2021/08/04 07:39:19;;;;;;;0.30;0.20;;;;;;;28.24;22.02;101511.75;5018865;28;20030;-71
2021/08/04 07:41:45;;;;;;;0.47;0.10;;;;;;;26.36;24.07;101511.09;5015661;28;20061;-71
2021/08/04 07:44:12;;;;;;;0.40;0.10;;;;;;;26.16;24.14;101503.22;5020445;28;20064;-71
2021/08/04 07:46:37;;;;;;;0.55;0.10;;;;;;;27.52;23.77;101506.66;5009947;28;20041;-71
2021/08/04 07:49:03;;;;;;;0.32;0.03;;;;;;;27.87;22.71;101508.38;5011636;28;20033;-71
2021/08/04 07:51:29;;;;;;;0.47;0.20;;;;;;;27.99;21.50;101508.09;5012580;28;20391;-70
2021/08/04 07:53:54;;;;;;;0.82;0.10;;;;;;;27.38;22.07;101510.75;5006764;28;20064;-70
2021/08/04 07:56:22;;;;;;;0.68;0.20;;;;;;;26.48;23.14;101509.91;5009163;28;20605;-71
2021/08/04 07:58:49;;;;;;;0.50;0.10;;;;;;;26.00;23.23;101508.31;5004650;28;20799;-71
2021/08/04 08:01:14;;;;;;;0.63;0.10;;;;;;;26.88;22.78;101512.19;5009187;28;20034;-70
2021/08/04 08:03:40;;;;;;;2.85;0.15;;;;;;;26.84;23.00;101507.28;5010686;28;20040;-71
2021/08/04 08:06:05;;;;;;;0.88;0.10;;;;;;;27.95;21.07;101506.75;5006608;28;20037;-70
2021/08/04 08:08:30;;;;;;;0.95;0.40;;;;;;;28.08;20.82;101507.13;5003692;28;20037;-71
2021/08/04 08:10:56;;;;;;;0.35;0.10;;;;;;;29.26;19.87;101501.63;5008832;28;20563;-71
2021/08/04 08:13:22;;;;;;;0.28;0.10;;;;;;;29.15;19.48;101502.84;5008687;28;20021;-70
2021/08/04 08:15:48;;;;;;;0.60;0.10;;;;;;;28.23;19.98;101496.63;5010455;28;20707;-71
2021/08/04 08:18:14;;;;;;;1.80;0.20;;;;;;;29.48;19.10;101500.91;4994400;28;20045;-71
2021/08/04 08:20:40;;;;;;;2.28;0.10;;;;;;;29.24;18.81;101501.81;5004109;28;20180;-71
2021/08/04 08:23:07;;;;;;;0.43;0.10;;;;;;;29.40;18.72;101502.81;5009931;28;20041;-71
2021/08/04 08:25:33;;;;;;;1.52;0.15;;;;;;;30.07;18.57;101502.44;5005631;28;20037;-72
2021/08/04 08:27:59;;;;;;;3.22;0.10;;;;;;;26.95;21.25;101499.00;5009936;28;20032;-70
2021/08/04 08:30:25;;;;;;;2.10;0.10;;;;;;;28.30;21.08;101494.94;5005728;28;20042;-71
2021/08/04 08:32:50;;;;;;;0.40;0.10;;;;;;;28.37;18.62;101497.81;5008278;28;20053;-70
2021/08/04 08:35:17;;;;;;;0.55;0.20;;;;;;;29.02;19.59;101497.09;5006037;28;20293;-71
2021/08/04 08:37:45;;;;;;;1.92;0.30;;;;;;;29.74;17.75;101498.00;5007260;28;20087;-72
2021/08/04 08:40:12;;;;;;;0.30;0.10;;;;;;;29.44;18.97;101502.28;4995385;28;20029;-71
2021/08/04 08:42:41;;;;;;;0.28;0.10;;;;;;;30.24;17.77;101495.09;5008785;28;20033;-71
2021/08/04 08:45:08;;;;;;;0.38;0.10;;;;;;;30.15;17.40;101497.88;5005399;28;20396;-71
2021/08/04 08:47:34;;;;;;;0.35;0.10;;;;;;;29.77;17.81;101494.97;5006790;28;20037;-72
2021/08/04 08:50:01;;;;;;;5.47;0.30;;;;;;;29.70;17.87;101498.53;4989335;28;20033;-71
2021/08/04 08:52:26;;;;;;;0.70;0.17;;;;;;;29.52;18.37;101507.63;5008558;28;20499;-71
2021/08/04 08:54:53;;;;;;;0.65;0.10;;;;;;;30.36;17.67;101496.41;5010508;28;20038;-71
2021/08/04 08:57:18;;;;;;;0.20;0.10;;;;;;;29.61;17.30;101504.97;5005557;28;20406;-71
2021/08/04 08:59:44;;;;;;;0.22;0.10;;;;;;;29.98;17.54;101494.38;5010126;28;20026;-71
2021/08/04 09:02:09;;;;;;;0.20;0.10;;;;;;;28.77;18.79;101496.22;5005368;28;20033;-72
2021/08/04 09:04:35;;;;;;;2.40;0.25;;;;;;;28.72;19.64;101500.28;5005215;28;20405;-70
2021/08/04 09:07:02;;;;;;;1.10;0.20;;;;;;;29.02;18.73;101495.25;5006401;28;20034;-71
2021/08/04 09:09:32;;;;;;;0.20;0.10;;;;;;;28.41;19.95;101493.81;5007208;28;20052;-71
2021/08/04 09:12:18;;;;;;;1.00;0.10;;;;;;;28.77;18.74;101498.91;4990638;28;20038;-70
2021/08/04 09:14:43;;;;;;;0.10;0.10;;;;;;;28.69;17.73;101500.59;5004661;28;20397;-72
2021/08/04 09:17:18;;;;;;;2.45;0.10;;;;;;;28.22;19.61;101497.63;5007450;28;20089;-70
2021/08/04 09:19:50;;;;;;;0.65;0.10;;;;;;;27.75;19.80;101495.41;5009233;28;20041;-72
2021/08/04 09:22:16;;;;;;;0.60;0.30;;;;;;;27.59;20.22;101496.13;5005523;28;20332;-71
2021/08/04 09:25:11;;;;;;;0.55;0.10;;;;;;;26.69;21.47;101505.16;5005824;28;20448;-70
2021/08/04 09:27:40;;;;;;;0.75;0.10;;;;;;;25.75;22.19;101502.63;5006081;28;20045;-71
2021/08/04 09:30:08;;;;;;;1.17;0.17;;;;;;;25.63;22.55;101507.34;4990322;28;20101;-72
2021/08/04 09:32:34;;;;;;;0.45;0.10;;;;;;;25.62;22.56;101494.94;5005848;28;20035;-71
2021/08/04 09:35:11;;;;;;;0.30;0.10;;;;;;;25.39;22.62;101504.28;4998142;28;20030;-70
2021/08/04 09:37:37;;;;;;;1.85;0.10;;;;;;;25.47;23.51;101507.06;5009824;28;20068;-71
2021/08/04 09:40:04;;;;;;;0.60;0.15;;;;;;;25.87;23.27;101504.16;5006592;28;20065;-71
2021/08/04 09:42:53;;;;;;;0.50;0.10;;;;;;;25.17;24.11;101497.41;5005505;28;20030;-71
2021/08/04 09:45:36;;;;;;;0.30;0.10;;;;;;;25.09;24.22;101499.97;5005640;28;20057;-73
2021/08/04 09:48:11;;;;;;;0.50;0.10;;;;;;;24.39;25.12;101502.66;5007146;28;20086;-71
2021/08/04 09:50:54;;;;;;;0.35;0.10;;;;;;;24.72;25.35;101505.97;5009487;28;20052;-71
2021/08/04 09:53:35;;;;;;;4.47;0.20;;;;;;;25.62;23.75;101500.31;5007908;28;20056;-71
2021/08/04 09:56:07;;;;;;;0.22;0.10;;;;;;;26.06;23.63;101491.69;4987888;28;20033;-72
2021/08/04 09:58:35;;;;;;;0.80;0.10;;;;;;;25.63;23.57;101501.97;5008968;28;20410;-71
2021/08/04 10:01:02;;;;;;;1.58;0.20;;;;;;;25.60;23.01;101496.94;5007205;28;20037;-71
2021/08/04 10:03:28;;;;;;;0.50;0.10;;;;;;;25.74;22.99;101490.25;5007821;28;20038;-72
2021/08/04 10:05:54;;;;;;;1.05;0.10;;;;;;;25.64;24.24;101487.63;5010305;28;20072;-72
2021/08/04 10:08:20;;;;;;;1.83;0.10;;;;;;;25.58;24.46;101492.72;5011472;28;20522;-72
2021/08/04 10:10:56;;;;;;;0.35;0.28;;;;;;;25.09;24.54;101482.06;5005015;28;20037;-71
2021/08/04 10:13:28;;;;;;;2.17;0.13;;;;;;;25.19;24.39;101490.91;5007735;28;20061;-72
2021/08/04 10:15:59;;;;;;;1.80;0.28;;;;;;;25.44;24.52;101488.63;4990934;28;20025;-72
2021/08/04 10:18:27;;;;;;;0.95;0.10;;;;;;;25.70;23.09;101485.34;5006710;28;20403;-72
2021/08/04 10:20:56;;;;;;;1.40;0.20;;;;;;;25.17;24.58;101486.69;5006516;28;20214;-72
2021/08/04 10:23:24;;;;;;;1.77;0.20;;;;;;;25.16;24.61;101485.88;5008528;28;20045;-73
2021/08/04 10:25:50;;;;;;;0.68;0.30;;;;;;;25.26;25.04;101488.50;5008755;28;20041;-72
2021/08/04 10:28:16;;;;;;;0.50;0.10;;;;;;;25.10;23.50;101486.44;5007902;28;20030;-71
2021/08/04 10:30:42;;;;;;;1.13;0.10;;;;;;;25.20;24.34;101481.91;5009584;28;20030;-72
2021/08/04 10:33:08;;;;;;;1.65;0.30;;;;;;;25.48;23.73;101488.19;5010978;28;20041;-72
2021/08/04 10:35:36;;;;;;;0.38;0.10;;;;;;;25.38;24.09;101476.66;5010110;28;20034;-72
2021/08/04 10:38:32;;;;;;;1.35;0.63;;;;;;;25.51;23.95;101483.53;5011295;28;20037;-71
2021/08/04 10:41:15;;;;;;;0.57;0.20;;;;;;;25.60;24.11;101480.88;4996437;28;20037;-72
2021/08/04 10:43:44;;;;;;;0.70;0.20;;;;;;;25.35;24.29;101479.66;4992294;28;20254;-72
2021/08/04 10:46:28;;;;;;;0.60;0.20;;;;;;;25.75;23.88;101475.88;4996561;28;20061;-71
2021/08/04 10:48:55;;;;;;;2.10;0.10;;;;;;;25.32;24.83;101485.28;4992105;28;20072;-72
2021/08/04 10:51:20;;;;;;;0.50;0.10;;;;;;;24.73;24.78;101475.59;5010574;28;20088;-72
2021/08/04 10:54:02;;;;;;;0.55;0.30;;;;;;;23.81;26.12;101477.44;5007772;28;20057;-71
2021/08/04 10:56:34;;;;;;;0.70;0.20;;;;;;;24.44;24.72;101471.91;5013266;28;20458;-72
2021/08/04 10:59:09;;;;;;;0.98;0.25;;;;;;;24.72;24.31;101479.25;5013246;28;20041;-71
2021/08/04 11:01:46;;;;;;;0.45;0.20;;;;;;;24.93;24.48;101473.75;5008256;28;20030;-71
2021/08/04 11:04:30;;;;;;;2.33;0.30;;;;;;;25.01;24.09;101480.09;4992681;28;20038;-71
2021/08/04 11:07:12;;;;;;;2.50;0.20;;;;;;;25.77;24.03;101481.06;5013973;28;20037;-72
2021/08/04 11:09:41;;;;;;;2.60;0.28;;;;;;;25.46;23.55;101483.97;4998484;28;20659;-72
2021/08/04 11:12:34;;;;;;;1.95;0.40;;;;;;;25.20;24.55;101484.59;5009276;28;20041;-73
2021/08/04 11:15:01;;;;;;;0.82;0.20;;;;;;;25.14;24.69;101489.66;5012569;28;20037;-71
2021/08/04 11:17:29;;;;;;;0.90;0.47;;;;;;;24.32;24.72;101472.97;4992695;28;20133;-71
2021/08/04 11:20:08;;;;;;;0.50;0.10;;;;;;;24.62;25.56;101472.06;5009923;28;20054;-71
2021/08/04 11:22:39;;;;;;;1.58;0.20;;;;;;;25.05;24.28;101478.84;5008749;28;20074;-71
2021/08/04 11:25:09;;;;;;;0.47;0.10;;;;;;;25.17;24.40;101473.31;5009543;28;20061;-71
2021/08/04 11:27:45;;;;;;;2.13;0.10;;;;;;;25.01;24.15;101469.41;5009497;28;20222;-71